Piney Point, Maryland
Current Conditions -  °F | °C
As of 12:53 PM on Saturday 20 Dec 2014 (Local Time) from KNUI Reporting Station
Scattered Clouds Scattered Clouds  
Wind Chill: 36°   Ceiling: Unl
Heat Index: 36°   Visibility: 10mi
Dew Point: 23°   Wind: 3mph
Humidity: 59%   Direction: 260°W
Pressure: 30.28"   Gusts: NA
Location:  38.14°N, 76.51°W
Report Text: KNUI 201753Z AUTO 26003KT 10SM SCT120 02/M05 A3028 RMK AO2 SLP252 T00221050 10028 21033 58016
Loading
Personal Weather Stations






























Interactive Weather Map New forecast layout! Learn more

10-Day Weather Forecast

Advertisements
Track Severe Weather on mobile